sensor_id;sensor_type;location;lat;lon;timestamp;temperature;humidity
74153;DHT22;62505;46.070;14.492;2023-04-10T00:00:57;21.00;66.70
74153;DHT22;62505;46.070;14.492;2023-04-10T00:03:24;21.00;65.90
74153;DHT22;62505;46.070;14.492;2023-04-10T00:05:51;21.00;65.80
74153;DHT22;62505;46.070;14.492;2023-04-10T00:08:19;21.00;65.80
74153;DHT22;62505;46.070;14.492;2023-04-10T00:10:46;21.00;65.90
74153;DHT22;62505;46.070;14.492;2023-04-10T00:13:15;20.90;66.50
74153;DHT22;62505;46.070;14.492;2023-04-10T00:15:42;20.90;65.70
74153;DHT22;62505;46.070;14.492;2023-04-10T00:18:09;21.00;65.70
74153;DHT22;62505;46.070;14.492;2023-04-10T00:20:36;21.00;66.50
74153;DHT22;62505;46.070;14.492;2023-04-10T00:23:03;21.00;65.80
74153;DHT22;62505;46.070;14.492;2023-04-10T00:25:30;20.90;65.50
74153;DHT22;62505;46.070;14.492;2023-04-10T00:27:56;21.00;65.70
74153;DHT22;62505;46.070;14.492;2023-04-10T00:30:25;20.90;65.60
74153;DHT22;62505;46.070;14.492;2023-04-10T00:32:52;20.90;65.50
74153;DHT22;62505;46.070;14.492;2023-04-10T00:35:19;20.90;65.50
74153;DHT22;62505;46.070;14.492;2023-04-10T00:37:46;20.90;65.50
74153;DHT22;62505;46.070;14.492;2023-04-10T00:40:14;20.90;65.50
74153;DHT22;62505;46.070;14.492;2023-04-10T00:42:41;20.90;66.20
74153;DHT22;62505;46.070;14.492;2023-04-10T00:45:09;20.90;65.40
74153;DHT22;62505;46.070;14.492;2023-04-10T00:47:38;20.90;65.40
74153;DHT22;62505;46.070;14.492;2023-04-10T00:50:06;20.90;65.30
74153;DHT22;62505;46.070;14.492;2023-04-10T00:52:33;20.90;65.30
74153;DHT22;62505;46.070;14.492;2023-04-10T00:54:59;20.90;65.30
74153;DHT22;62505;46.070;14.492;2023-04-10T00:57:26;20.90;65.30
74153;DHT22;62505;46.070;14.492;2023-04-10T00:59:53;20.90;65.20
74153;DHT22;62505;46.070;14.492;2023-04-10T01:02:20;20.90;65.20
74153;DHT22;62505;46.070;14.492;2023-04-10T01:04:49;20.90;65.20
74153;DHT22;62505;46.070;14.492;2023-04-10T01:07:24;20.90;65.10
74153;DHT22;62505;46.070;14.492;2023-04-10T01:09:59;20.90;65.10
74153;DHT22;62505;46.070;14.492;2023-04-10T01:12:50;20.90;65.10
74153;DHT22;62505;46.070;14.492;2023-04-10T01:15:21;20.90;65.10
74153;DHT22;62505;46.070;14.492;2023-04-10T01:17:52;20.90;65.00
74153;DHT22;62505;46.070;14.492;2023-04-10T01:20:24;20.90;65.10
74153;DHT22;62505;46.070;14.492;2023-04-10T01:23:08;20.90;65.00
74153;DHT22;62505;46.070;14.492;2023-04-10T01:25:40;20.90;65.00
74153;DHT22;62505;46.070;14.492;2023-04-10T01:28:24;20.90;65.00
74153;DHT22;62505;46.070;14.492;2023-04-10T01:31:00;20.90;65.70
74153;DHT22;62505;46.070;14.492;2023-04-10T01:33:33;20.90;64.90
74153;DHT22;62505;46.070;14.492;2023-04-10T01:36:03;20.90;64.90
74153;DHT22;62505;46.070;14.492;2023-04-10T01:38:32;20.90;64.90
74153;DHT22;62505;46.070;14.492;2023-04-10T01:41:00;20.90;64.80
74153;DHT22;62505;46.070;14.492;2023-04-10T01:43:28;20.90;64.80
74153;DHT22;62505;46.070;14.492;2023-04-10T01:45:58;20.90;64.80
74153;DHT22;62505;46.070;14.492;2023-04-10T01:48:27;20.90;64.80
74153;DHT22;62505;46.070;14.492;2023-04-10T01:50:54;20.90;64.80
74153;DHT22;62505;46.070;14.492;2023-04-10T01:53:22;20.90;64.70
74153;DHT22;62505;46.070;14.492;2023-04-10T01:55:51;20.90;64.70
74153;DHT22;62505;46.070;14.492;2023-04-10T01:58:19;20.90;64.60
74153;DHT22;62505;46.070;14.492;2023-04-10T02:00:46;20.90;64.60
74153;DHT22;62505;46.070;14.492;2023-04-10T02:03:14;20.90;64.60
74153;DHT22;62505;46.070;14.492;2023-04-10T02:05:48;20.90;64.60
74153;DHT22;62505;46.070;14.492;2023-04-10T02:08:22;20.90;64.60
74153;DHT22;62505;46.070;14.492;2023-04-10T02:10:53;20.90;64.50
74153;DHT22;62505;46.070;14.492;2023-04-10T02:13:24;20.90;64.60
74153;DHT22;62505;46.070;14.492;2023-04-10T02:15:54;20.90;64.50
74153;DHT22;62505;46.070;14.492;2023-04-10T02:18:23;20.90;64.50
74153;DHT22;62505;46.070;14.492;2023-04-10T02:20:51;20.90;64.50
74153;DHT22;62505;46.070;14.492;2023-04-10T02:23:19;20.90;64.40
74153;DHT22;62505;46.070;14.492;2023-04-10T02:25:46;20.90;64.40
74153;DHT22;62505;46.070;14.492;2023-04-10T02:28:13;20.90;64.40
74153;DHT22;62505;46.070;14.492;2023-04-10T02:30:40;20.90;64.40
74153;DHT22;62505;46.070;14.492;2023-04-10T02:33:07;20.90;64.30
74153;DHT22;62505;46.070;14.492;2023-04-10T02:35:35;20.90;64.40
74153;DHT22;62505;46.070;14.492;2023-04-10T02:38:02;20.90;64.30
74153;DHT22;62505;46.070;14.492;2023-04-10T02:40:29;20.90;64.30
74153;DHT22;62505;46.070;14.492;2023-04-10T02:42:56;20.90;64.30
74153;DHT22;62505;46.070;14.492;2023-04-10T02:45:23;20.90;64.20
74153;DHT22;62505;46.070;14.492;2023-04-10T02:47:50;20.90;64.30
74153;DHT22;62505;46.070;14.492;2023-04-10T02:50:16;20.90;64.20
74153;DHT22;62505;46.070;14.492;2023-04-10T02:52:45;20.90;64.20
74153;DHT22;62505;46.070;14.492;2023-04-10T02:55:12;20.90;64.20
74153;DHT22;62505;46.070;14.492;2023-04-10T02:57:39;20.90;64.20
74153;DHT22;62505;46.070;14.492;2023-04-10T03:00:08;20.90;64.20
74153;DHT22;62505;46.070;14.492;2023-04-10T03:02:35;20.90;64.20
74153;DHT22;62505;46.070;14.492;2023-04-10T03:05:02;20.90;64.10
74153;DHT22;62505;46.070;14.492;2023-04-10T03:07:29;20.90;64.00
74153;DHT22;62505;46.070;14.492;2023-04-10T03:09:58;20.90;64.00
74153;DHT22;62505;46.070;14.492;2023-04-10T03:12:25;20.90;64.00
74153;DHT22;62505;46.070;14.492;2023-04-10T03:14:51;20.90;64.00
74153;DHT22;62505;46.070;14.492;2023-04-10T03:17:18;20.90;64.00
74153;DHT22;62505;46.070;14.492;2023-04-10T03:19:45;20.90;64.00
74153;DHT22;62505;46.070;14.492;2023-04-10T03:22:12;20.90;64.00
74153;DHT22;62505;46.070;14.492;2023-04-10T03:24:39;20.90;63.90
74153;DHT22;62505;46.070;14.492;2023-04-10T03:27:07;20.90;63.90
74153;DHT22;62505;46.070;14.492;2023-04-10T03:29:34;20.90;63.90
74153;DHT22;62505;46.070;14.492;2023-04-10T03:32:01;20.90;63.90
74153;DHT22;62505;46.070;14.492;2023-04-10T03:34:28;20.90;63.80
74153;DHT22;62505;46.070;14.492;2023-04-10T03:36:55;20.90;63.90
74153;DHT22;62505;46.070;14.492;2023-04-10T03:39:22;20.90;63.80
74153;DHT22;62505;46.070;14.492;2023-04-10T03:41:49;20.90;63.90
74153;DHT22;62505;46.070;14.492;2023-04-10T03:44:17;20.80;63.80
74153;DHT22;62505;46.070;14.492;2023-04-10T03:46:44;20.90;63.80
74153;DHT22;62505;46.070;14.492;2023-04-10T03:49:11;20.90;63.80
74153;DHT22;62505;46.070;14.492;2023-04-10T03:51:38;20.90;63.80
74153;DHT22;62505;46.070;14.492;2023-04-10T03:54:05;20.90;63.80
74153;DHT22;62505;46.070;14.492;2023-04-10T03:56:31;20.90;63.70
74153;DHT22;62505;46.070;14.492;2023-04-10T03:58:58;20.90;63.70
74153;DHT22;62505;46.070;14.492;2023-04-10T04:01:27;20.90;63.70
74153;DHT22;62505;46.070;14.492;2023-04-10T04:03:53;20.90;63.70
74153;DHT22;62505;46.070;14.492;2023-04-10T04:06:20;20.90;63.70
74153;DHT22;62505;46.070;14.492;2023-04-10T04:08:47;20.90;63.70
74153;DHT22;62505;46.070;14.492;2023-04-10T04:11:14;20.90;63.60
74153;DHT22;62505;46.070;14.492;2023-04-10T04:13:41;20.90;63.60
74153;DHT22;62505;46.070;14.492;2023-04-10T04:16:09;20.90;63.60
74153;DHT22;62505;46.070;14.492;2023-04-10T04:18:37;20.90;63.50
74153;DHT22;62505;46.070;14.492;2023-04-10T04:21:04;20.90;63.50
74153;DHT22;62505;46.070;14.492;2023-04-10T04:23:33;20.90;63.50
74153;DHT22;62505;46.070;14.492;2023-04-10T04:25:59;20.90;63.50
74153;DHT22;62505;46.070;14.492;2023-04-10T04:28:26;20.90;63.50
74153;DHT22;62505;46.070;14.492;2023-04-10T04:30:53;20.90;63.50
74153;DHT22;62505;46.070;14.492;2023-04-10T04:33:20;20.90;63.50
74153;DHT22;62505;46.070;14.492;2023-04-10T04:35:48;20.90;63.50
74153;DHT22;62505;46.070;14.492;2023-04-10T04:38:15;20.80;63.40
74153;DHT22;62505;46.070;14.492;2023-04-10T04:40:44;20.80;63.40
74153;DHT22;62505;46.070;14.492;2023-04-10T04:43:11;20.90;63.40
74153;DHT22;62505;46.070;14.492;2023-04-10T04:45:38;20.80;63.40
74153;DHT22;62505;46.070;14.492;2023-04-10T04:48:05;20.80;63.30
74153;DHT22;62505;46.070;14.492;2023-04-10T04:50:32;20.80;63.40
74153;DHT22;62505;46.070;14.492;2023-04-10T04:53:00;20.80;63.30
74153;DHT22;62505;46.070;14.492;2023-04-10T04:55:27;20.80;63.30
74153;DHT22;62505;46.070;14.492;2023-04-10T04:57:54;20.80;63.30
74153;DHT22;62505;46.070;14.492;2023-04-10T05:00:21;20.90;63.30
74153;DHT22;62505;46.070;14.492;2023-04-10T05:02:47;20.90;63.30
74153;DHT22;62505;46.070;14.492;2023-04-10T05:05:14;20.90;63.30
74153;DHT22;62505;46.070;14.492;2023-04-10T05:07:41;20.90;63.30
74153;DHT22;62505;46.070;14.492;2023-04-10T05:10:10;20.80;63.20
74153;DHT22;62505;46.070;14.492;2023-04-10T05:12:36;20.80;63.20
74153;DHT22;62505;46.070;14.492;2023-04-10T05:15:07;20.90;63.20
74153;DHT22;62505;46.070;14.492;2023-04-10T05:17:33;20.80;63.20
74153;DHT22;62505;46.070;14.492;2023-04-10T05:20:01;20.80;63.20
74153;DHT22;62505;46.070;14.492;2023-04-10T05:22:28;20.80;63.20
74153;DHT22;62505;46.070;14.492;2023-04-10T05:24:55;20.80;63.20
74153;DHT22;62505;46.070;14.492;2023-04-10T05:27:23;20.80;63.20
74153;DHT22;62505;46.070;14.492;2023-04-10T05:29:50;20.80;63.10
74153;DHT22;62505;46.070;14.492;2023-04-10T05:32:17;20.80;63.10
74153;DHT22;62505;46.070;14.492;2023-04-10T05:34:44;20.80;63.10
74153;DHT22;62505;46.070;14.492;2023-04-10T05:37:11;20.80;63.10
74153;DHT22;62505;46.070;14.492;2023-04-10T05:39:38;20.80;63.10
74153;DHT22;62505;46.070;14.492;2023-04-10T05:42:04;20.80;63.10
74153;DHT22;62505;46.070;14.492;2023-04-10T05:44:33;20.80;63.80
74153;DHT22;62505;46.070;14.492;2023-04-10T05:46:59;20.80;63.10
74153;DHT22;62505;46.070;14.492;2023-04-10T05:49:26;20.80;63.10
74153;DHT22;62505;46.070;14.492;2023-04-10T05:51:53;20.80;63.00
74153;DHT22;62505;46.070;14.492;2023-04-10T05:54:20;20.80;63.00
74153;DHT22;62505;46.070;14.492;2023-04-10T05:56:47;20.80;63.00
74153;DHT22;62505;46.070;14.492;2023-04-10T05:59:14;20.80;63.00
74153;DHT22;62505;46.070;14.492;2023-04-10T06:01:43;20.80;62.90
74153;DHT22;62505;46.070;14.492;2023-04-10T06:04:10;20.80;62.90
74153;DHT22;62505;46.070;14.492;2023-04-10T06:06:38;20.80;62.90
74153;DHT22;62505;46.070;14.492;2023-04-10T06:09:05;20.80;63.80
74153;DHT22;62505;46.070;14.492;2023-04-10T06:11:32;20.80;62.90
74153;DHT22;62505;46.070;14.492;2023-04-10T06:13:59;20.80;62.90
74153;DHT22;62505;46.070;14.492;2023-04-10T06:16:26;20.80;62.90
74153;DHT22;62505;46.070;14.492;2023-04-10T06:18:54;20.80;62.80
74153;DHT22;62505;46.070;14.492;2023-04-10T06:21:21;20.80;62.80
74153;DHT22;62505;46.070;14.492;2023-04-10T06:23:48;20.80;62.90
74153;DHT22;62505;46.070;14.492;2023-04-10T06:26:15;20.80;62.80
74153;DHT22;62505;46.070;14.492;2023-04-10T06:28:42;20.80;62.80
74153;DHT22;62505;46.070;14.492;2023-04-10T06:31:11;20.80;62.80
74153;DHT22;62505;46.070;14.492;2023-04-10T06:33:38;20.80;62.80
74153;DHT22;62505;46.070;14.492;2023-04-10T06:36:07;20.80;62.80
74153;DHT22;62505;46.070;14.492;2023-04-10T06:38:34;20.80;63.20
74153;DHT22;62505;46.070;14.492;2023-04-10T06:41:03;20.80;62.80
74153;DHT22;62505;46.070;14.492;2023-04-10T06:43:31;20.80;62.80
74153;DHT22;62505;46.070;14.492;2023-04-10T06:45:58;20.80;62.70
74153;DHT22;62505;46.070;14.492;2023-04-10T06:48:25;20.80;62.70
74153;DHT22;62505;46.070;14.492;2023-04-10T06:50:52;20.80;62.80
74153;DHT22;62505;46.070;14.492;2023-04-10T06:53:20;20.80;62.70
74153;DHT22;62505;46.070;14.492;2023-04-10T06:55:47;20.80;62.70
74153;DHT22;62505;46.070;14.492;2023-04-10T06:58:14;20.80;62.70
74153;DHT22;62505;46.070;14.492;2023-04-10T07:00:41;20.80;62.70
74153;DHT22;62505;46.070;14.492;2023-04-10T07:03:07;20.80;62.70
74153;DHT22;62505;46.070;14.492;2023-04-10T07:05:34;20.80;62.70
74153;DHT22;62505;46.070;14.492;2023-04-10T07:08:01;20.80;62.70
74153;DHT22;62505;46.070;14.492;2023-04-10T07:10:29;20.80;62.70
74153;DHT22;62505;46.070;14.492;2023-04-10T07:12:56;20.80;62.60
74153;DHT22;62505;46.070;14.492;2023-04-10T07:15:23;20.80;62.60
74153;DHT22;62505;46.070;14.492;2023-04-10T07:17:50;20.80;62.60
74153;DHT22;62505;46.070;14.492;2023-04-10T07:20:17;20.80;62.60
74153;DHT22;62505;46.070;14.492;2023-04-10T07:22:45;20.80;62.60
74153;DHT22;62505;46.070;14.492;2023-04-10T07:25:11;20.80;62.50
74153;DHT22;62505;46.070;14.492;2023-04-10T07:27:40;20.80;62.60
74153;DHT22;62505;46.070;14.492;2023-04-10T07:30:08;20.80;62.50
74153;DHT22;62505;46.070;14.492;2023-04-10T07:32:35;20.80;62.50
74153;DHT22;62505;46.070;14.492;2023-04-10T07:35:04;20.80;62.50
74153;DHT22;62505;46.070;14.492;2023-04-10T07:37:31;20.80;62.50
74153;DHT22;62505;46.070;14.492;2023-04-10T07:39:58;20.80;62.50
74153;DHT22;62505;46.070;14.492;2023-04-10T07:42:26;20.80;62.50
74153;DHT22;62505;46.070;14.492;2023-04-10T07:44:55;20.80;62.40
74153;DHT22;62505;46.070;14.492;2023-04-10T07:47:22;20.80;63.20
74153;DHT22;62505;46.070;14.492;2023-04-10T07:49:49;20.80;62.40
74153;DHT22;62505;46.070;14.492;2023-04-10T07:52:17;20.80;62.50
74153;DHT22;62505;46.070;14.492;2023-04-10T07:54:44;20.80;62.40
74153;DHT22;62505;46.070;14.492;2023-04-10T07:57:11;20.80;62.40
74153;DHT22;62505;46.070;14.492;2023-04-10T07:59:37;20.80;62.40
74153;DHT22;62505;46.070;14.492;2023-04-10T08:02:06;20.80;62.40
74153;DHT22;62505;46.070;14.492;2023-04-10T08:04:33;20.80;62.40
74153;DHT22;62505;46.070;14.492;2023-04-10T08:07:00;20.80;62.30
74153;DHT22;62505;46.070;14.492;2023-04-10T08:09:27;20.80;62.30
74153;DHT22;62505;46.070;14.492;2023-04-10T08:11:53;20.80;62.30
74153;DHT22;62505;46.070;14.492;2023-04-10T08:14:22;20.80;62.30
74153;DHT22;62505;46.070;14.492;2023-04-10T08:16:48;20.80;62.30
74153;DHT22;62505;46.070;14.492;2023-04-10T08:19:17;20.80;62.30
74153;DHT22;62505;46.070;14.492;2023-04-10T08:21:44;20.80;62.30
74153;DHT22;62505;46.070;14.492;2023-04-10T08:24:10;20.80;62.30
74153;DHT22;62505;46.070;14.492;2023-04-10T08:26:37;20.80;62.30
74153;DHT22;62505;46.070;14.492;2023-04-10T08:29:04;20.80;62.30
74153;DHT22;62505;46.070;14.492;2023-04-10T08:31:31;20.80;62.30
74153;DHT22;62505;46.070;14.492;2023-04-10T08:33:58;20.80;62.30
74153;DHT22;62505;46.070;14.492;2023-04-10T08:36:26;20.80;62.30
74153;DHT22;62505;46.070;14.492;2023-04-10T08:38:53;20.80;62.30
74153;DHT22;62505;46.070;14.492;2023-04-10T08:41:20;20.80;62.30
74153;DHT22;62505;46.070;14.492;2023-04-10T08:43:47;20.80;62.30
74153;DHT22;62505;46.070;14.492;2023-04-10T08:46:15;20.80;62.30
74153;DHT22;62505;46.070;14.492;2023-04-10T08:48:46;20.80;62.30
74153;DHT22;62505;46.070;14.492;2023-04-10T08:51:16;20.80;62.30
74153;DHT22;62505;46.070;14.492;2023-04-10T08:53:49;20.80;62.30
74153;DHT22;62505;46.070;14.492;2023-04-10T08:56:17;20.80;62.30
74153;DHT22;62505;46.070;14.492;2023-04-10T08:58:44;20.80;62.30
74153;DHT22;62505;46.070;14.492;2023-04-10T09:01:11;20.80;62.20
74153;DHT22;62505;46.070;14.492;2023-04-10T09:03:38;20.80;62.30
74153;DHT22;62505;46.070;14.492;2023-04-10T09:06:05;20.80;62.20
74153;DHT22;62505;46.070;14.492;2023-04-10T09:08:33;20.80;62.20
74153;DHT22;62505;46.070;14.492;2023-04-10T09:11:01;20.80;62.20
74153;DHT22;62505;46.070;14.492;2023-04-10T09:13:36;20.80;62.30
74153;DHT22;62505;46.070;14.492;2023-04-10T09:16:03;20.80;62.20
74153;DHT22;62505;46.070;14.492;2023-04-10T09:18:41;20.80;62.20
74153;DHT22;62505;46.070;14.492;2023-04-10T09:21:09;20.80;63.50
74153;DHT22;62505;46.070;14.492;2023-04-10T09:23:36;21.00;64.30
74153;DHT22;62505;46.070;14.492;2023-04-10T09:26:24;21.10;63.20
74153;DHT22;62505;46.070;14.492;2023-04-10T09:28:55;21.10;62.50
74153;DHT22;62505;46.070;14.492;2023-04-10T09:31:31;21.10;62.20
74153;DHT22;62505;46.070;14.492;2023-04-10T09:34:12;21.10;62.30
74153;DHT22;62505;46.070;14.492;2023-04-10T09:36:39;21.10;62.30
74153;DHT22;62505;46.070;14.492;2023-04-10T09:39:08;21.10;62.50
74153;DHT22;62505;46.070;14.492;2023-04-10T09:41:46;21.10;62.50
74153;DHT22;62505;46.070;14.492;2023-04-10T09:44:13;21.10;62.50
74153;DHT22;62505;46.070;14.492;2023-04-10T09:46:40;21.10;62.80
74153;DHT22;62505;46.070;14.492;2023-04-10T09:49:07;21.00;62.80
74153;DHT22;62505;46.070;14.492;2023-04-10T09:51:34;21.00;62.70
74153;DHT22;62505;46.070;14.492;2023-04-10T09:54:02;21.00;62.80
74153;DHT22;62505;46.070;14.492;2023-04-10T09:56:30;21.00;62.80
74153;DHT22;62505;46.070;14.492;2023-04-10T09:59:00;21.00;62.70
74153;DHT22;62505;46.070;14.492;2023-04-10T10:01:29;21.00;62.90
74153;DHT22;62505;46.070;14.492;2023-04-10T10:04:01;21.00;63.10
74153;DHT22;62505;46.070;14.492;2023-04-10T10:06:29;21.00;63.20
74153;DHT22;62505;46.070;14.492;2023-04-10T10:09:01;21.10;63.60
74153;DHT22;62505;46.070;14.492;2023-04-10T10:11:31;21.20;63.00
74153;DHT22;62505;46.070;14.492;2023-04-10T10:14:02;21.30;63.90
74153;DHT22;62505;46.070;14.492;2023-04-10T10:16:38;21.30;63.90
74153;DHT22;62505;46.070;14.492;2023-04-10T10:19:15;21.30;63.70
74153;DHT22;62505;46.070;14.492;2023-04-10T10:21:43;21.30;65.50
74153;DHT22;62505;46.070;14.492;2023-04-10T10:24:11;21.30;64.60
74153;DHT22;62505;46.070;14.492;2023-04-10T10:26:39;21.30;64.30
74153;DHT22;62505;46.070;14.492;2023-04-10T10:29:08;21.30;65.50
74153;DHT22;62505;46.070;14.492;2023-04-10T10:31:37;21.40;66.10
74153;DHT22;62505;46.070;14.492;2023-04-10T10:34:05;21.40;66.30
74153;DHT22;62505;46.070;14.492;2023-04-10T10:36:33;21.40;65.20
74153;DHT22;62505;46.070;14.492;2023-04-10T10:39:17;21.40;65.90
74153;DHT22;62505;46.070;14.492;2023-04-10T10:41:57;21.50;66.60
74153;DHT22;62505;46.070;14.492;2023-04-10T10:44:35;21.50;67.20
74153;DHT22;62505;46.070;14.492;2023-04-10T10:47:13;21.60;66.00
74153;DHT22;62505;46.070;14.492;2023-04-10T10:49:59;21.40;65.10
74153;DHT22;62505;46.070;14.492;2023-04-10T10:52:36;21.40;66.10
74153;DHT22;62505;46.070;14.492;2023-04-10T10:55:29;21.30;65.80
74153;DHT22;62505;46.070;14.492;2023-04-10T10:58:07;21.20;66.00
74153;DHT22;62505;46.070;14.492;2023-04-10T11:01:06;21.20;63.80
74153;DHT22;62505;46.070;14.492;2023-04-10T11:03:34;21.20;62.10
74153;DHT22;62505;46.070;14.492;2023-04-10T11:06:03;21.20;61.60
74153;DHT22;62505;46.070;14.492;2023-04-10T11:08:39;21.10;61.40
74153;DHT22;62505;46.070;14.492;2023-04-10T11:11:13;21.10;60.80
74153;DHT22;62505;46.070;14.492;2023-04-10T11:16:46;21.00;59.50
74153;DHT22;62505;46.070;14.492;2023-04-10T11:19:14;21.00;58.80
74153;DHT22;62505;46.070;14.492;2023-04-10T11:22:01;21.00;57.80
74153;DHT22;62505;46.070;14.492;2023-04-10T11:24:29;21.00;57.30
74153;DHT22;62505;46.070;14.492;2023-04-10T11:27:44;21.00;57.50
74153;DHT22;62505;46.070;14.492;2023-04-10T11:30:34;20.90;56.60
74153;DHT22;62505;46.070;14.492;2023-04-10T11:33:04;20.90;56.90
74153;DHT22;62505;46.070;14.492;2023-04-10T11:35:31;21.00;56.50
74153;DHT22;62505;46.070;14.492;2023-04-10T11:38:12;20.90;55.90
74153;DHT22;62505;46.070;14.492;2023-04-10T11:40:59;20.90;55.90
74153;DHT22;62505;46.070;14.492;2023-04-10T11:43:27;20.90;56.10
74153;DHT22;62505;46.070;14.492;2023-04-10T11:46:01;20.90;55.40
74153;DHT22;62505;46.070;14.492;2023-04-10T11:48:30;20.90;56.20
74153;DHT22;62505;46.070;14.492;2023-04-10T11:50:57;20.90;55.40
74153;DHT22;62505;46.070;14.492;2023-04-10T11:53:26;20.90;56.20
74153;DHT22;62505;46.070;14.492;2023-04-10T11:55:54;20.90;56.10
74153;DHT22;62505;46.070;14.492;2023-04-10T11:58:23;20.80;56.10
74153;DHT22;62505;46.070;14.492;2023-04-10T12:01:00;20.80;56.00
74153;DHT22;62505;46.070;14.492;2023-04-10T12:03:36;20.80;55.80
74153;DHT22;62505;46.070;14.492;2023-04-10T12:06:06;20.80;55.90
74153;DHT22;62505;46.070;14.492;2023-04-10T12:08:35;20.80;55.60
74153;DHT22;62505;46.070;14.492;2023-04-10T12:11:02;20.80;55.30
74153;DHT22;62505;46.070;14.492;2023-04-10T12:13:30;20.80;55.30
74153;DHT22;62505;46.070;14.492;2023-04-10T12:15:58;20.80;55.00
74153;DHT22;62505;46.070;14.492;2023-04-10T12:18:26;20.80;54.70
74153;DHT22;62505;46.070;14.492;2023-04-10T12:20:54;20.80;55.20
74153;DHT22;62505;46.070;14.492;2023-04-10T12:23:22;20.80;55.10
74153;DHT22;62505;46.070;14.492;2023-04-10T12:25:49;20.70;54.80
74153;DHT22;62505;46.070;14.492;2023-04-10T12:28:17;20.70;54.60
74153;DHT22;62505;46.070;14.492;2023-04-10T12:30:48;20.70;54.60
74153;DHT22;62505;46.070;14.492;2023-04-10T12:33:21;20.70;54.30
74153;DHT22;62505;46.070;14.492;2023-04-10T12:35:48;20.70;54.30
74153;DHT22;62505;46.070;14.492;2023-04-10T12:38:34;20.70;54.30
74153;DHT22;62505;46.070;14.492;2023-04-10T12:41:02;20.70;54.30
74153;DHT22;62505;46.070;14.492;2023-04-10T12:43:30;20.70;54.30
74153;DHT22;62505;46.070;14.492;2023-04-10T12:45:58;20.70;54.00
74153;DHT22;62505;46.070;14.492;2023-04-10T12:48:25;20.70;54.00
74153;DHT22;62505;46.070;14.492;2023-04-10T12:50:52;20.70;54.00
74153;DHT22;62505;46.070;14.492;2023-04-10T12:53:21;20.70;53.70
74153;DHT22;62505;46.070;14.492;2023-04-10T12:55:58;20.70;53.40
74153;DHT22;62505;46.070;14.492;2023-04-10T12:58:26;20.70;53.90
74153;DHT22;62505;46.070;14.492;2023-04-10T13:00:57;20.80;54.30
74153;DHT22;62505;46.070;14.492;2023-04-10T13:03:25;20.80;54.70
74153;DHT22;62505;46.070;14.492;2023-04-10T13:05:52;20.80;55.20
74153;DHT22;62505;46.070;14.492;2023-04-10T13:08:21;20.80;55.50
74153;DHT22;62505;46.070;14.492;2023-04-10T13:10:48;20.80;55.80
74153;DHT22;62505;46.070;14.492;2023-04-10T13:13:15;20.90;56.10
74153;DHT22;62505;46.070;14.492;2023-04-10T13:15:42;20.90;56.40
74153;DHT22;62505;46.070;14.492;2023-04-10T13:18:10;20.90;56.70
74153;DHT22;62505;46.070;14.492;2023-04-10T13:20:37;20.90;56.70
74153;DHT22;62505;46.070;14.492;2023-04-10T13:23:05;20.90;57.10
74153;DHT22;62505;46.070;14.492;2023-04-10T13:25:36;21.00;57.60
74153;DHT22;62505;46.070;14.492;2023-04-10T13:28:04;21.00;58.00
74153;DHT22;62505;46.070;14.492;2023-04-10T13:30:34;21.00;57.70
74153;DHT22;62505;46.070;14.492;2023-04-10T13:33:02;21.00;58.30
74153;DHT22;62505;46.070;14.492;2023-04-10T13:35:28;21.00;58.60
74153;DHT22;62505;46.070;14.492;2023-04-10T13:37:55;21.10;58.70
74153;DHT22;62505;46.070;14.492;2023-04-10T13:40:22;21.10;58.70
74153;DHT22;62505;46.070;14.492;2023-04-10T13:42:50;21.10;59.20
74153;DHT22;62505;46.070;14.492;2023-04-10T13:45:17;21.10;59.50
74153;DHT22;62505;46.070;14.492;2023-04-10T13:47:44;21.10;59.60
74153;DHT22;62505;46.070;14.492;2023-04-10T13:50:11;21.20;59.20
74153;DHT22;62505;46.070;14.492;2023-04-10T13:52:38;21.20;59.60
74153;DHT22;62505;46.070;14.492;2023-04-10T13:55:06;21.20;59.90
74153;DHT22;62505;46.070;14.492;2023-04-10T13:57:33;21.20;60.90
74153;DHT22;62505;46.070;14.492;2023-04-10T14:00:05;21.20;60.10
74153;DHT22;62505;46.070;14.492;2023-04-10T14:02:33;21.20;60.70
74153;DHT22;62505;46.070;14.492;2023-04-10T14:05:00;21.20;60.60
74153;DHT22;62505;46.070;14.492;2023-04-10T14:07:27;21.30;60.30
74153;DHT22;62505;46.070;14.492;2023-04-10T14:09:53;21.30;60.40
74153;DHT22;62505;46.070;14.492;2023-04-10T14:12:21;21.30;60.10
74153;DHT22;62505;46.070;14.492;2023-04-10T14:14:48;21.30;61.00
74153;DHT22;62505;46.070;14.492;2023-04-10T14:17:16;21.30;61.10
74153;DHT22;62505;46.070;14.492;2023-04-10T14:19:43;21.30;61.30
74153;DHT22;62505;46.070;14.492;2023-04-10T14:22:12;21.30;61.60
74153;DHT22;62505;46.070;14.492;2023-04-10T14:24:39;21.40;61.60
74153;DHT22;62505;46.070;14.492;2023-04-10T14:27:06;21.40;61.70
74153;DHT22;62505;46.070;14.492;2023-04-10T14:29:33;21.40;61.80
74153;DHT22;62505;46.070;14.492;2023-04-10T14:32:00;21.50;61.70
74153;DHT22;62505;46.070;14.492;2023-04-10T14:34:29;21.50;62.30
74153;DHT22;62505;46.070;14.492;2023-04-10T14:36:57;21.50;62.10
74153;DHT22;62505;46.070;14.492;2023-04-10T14:39:24;21.50;62.00
74153;DHT22;62505;46.070;14.492;2023-04-10T14:41:51;21.50;61.80
74153;DHT22;62505;46.070;14.492;2023-04-10T14:44:18;21.40;61.70
74153;DHT22;62505;46.070;14.492;2023-04-10T14:46:45;21.40;61.10
74153;DHT22;62505;46.070;14.492;2023-04-10T14:49:12;21.40;61.40
74153;DHT22;62505;46.070;14.492;2023-04-10T14:51:43;21.40;61.20
74153;DHT22;62505;46.070;14.492;2023-04-10T14:54:10;21.40;60.90
74153;DHT22;62505;46.070;14.492;2023-04-10T14:56:37;21.40;61.00
74153;DHT22;62505;46.070;14.492;2023-04-10T14:59:07;21.40;61.20
74153;DHT22;62505;46.070;14.492;2023-04-10T15:01:37;21.40;62.00
74153;DHT22;62505;46.070;14.492;2023-04-10T15:04:03;21.40;62.20
74153;DHT22;62505;46.070;14.492;2023-04-10T15:06:31;21.40;62.20
74153;DHT22;62505;46.070;14.492;2023-04-10T15:09:00;21.50;62.20
74153;DHT22;62505;46.070;14.492;2023-04-10T15:11:26;21.50;62.30
74153;DHT22;62505;46.070;14.492;2023-04-10T15:13:53;21.50;62.10
74153;DHT22;62505;46.070;14.492;2023-04-10T15:16:21;21.60;62.10
74153;DHT22;62505;46.070;14.492;2023-04-10T15:18:48;21.60;62.20
74153;DHT22;62505;46.070;14.492;2023-04-10T15:21:15;21.60;62.20
74153;DHT22;62505;46.070;14.492;2023-04-10T15:23:41;21.60;62.10
74153;DHT22;62505;46.070;14.492;2023-04-10T15:26:13;21.60;62.20
74153;DHT22;62505;46.070;14.492;2023-04-10T15:28:43;21.70;62.30